Las Tunas, Cuba
Current Conditions -  °F | °C
As of 9:51 PM on Wednesday 17 Dec 2014 (Local Time) from MUHG Reporting Station
Broken Clouds Broken Clouds  
Wind Chill: 73°   Ceiling: 30000
Heat Index: 73°   Visibility: 6mi
Dew Point: 66°   Wind: 6mph
Humidity: 78%   Direction: 40°NE
Pressure: 30.09"   Gusts: NA
Location:  20.97°N, 76.95°W
Report Text: MUHG 180151Z 04005KT 9000 FEW025 BKN300 23/19 Q1019
Loading
Personal Weather Stations






























Interactive Weather Map New forecast layout! Learn more

10-Day Weather Forecast

Advertisements
Track Severe Weather on mobile